Venice, FL

6:26 AM EDT on June 24, 2017 (GMT -0400)
Venice Municipal

Weather History for KVNC - November, 2013

Change the Weather History Date:

Sunday, November 3, 2013

  Actual Average Record
Temperature  
Mean Temperature 68 °F -  
Max Temperature 77 °F 82 °F 88 °F (1961)
Min Temperature 60 °F 62 °F 44 °F (1963)
Cooling Degree Days 4    
Growing Degree Days 18 (Base 50)    
Moisture  
Dew Point 51 °F    
Average Humidity 60    
Maximum Humidity 94    
Minimum Humidity 29    
Precipitation  
Precipitation 0.00 in - - ()
Sea Level Pressure  
Sea Level Pressure 30.04 in    
Wind  
Wind Speed 9 mph (NNE)    
Max Wind Speed 17 mph    
Max Gust Speed 24 mph    
Visibility 10 miles    
Events      
Averages and records for this station are not official NWS values.
T = Trace of Precipitation, MM = Missing Value Source: NWS Daily Summary

Daily Weather History Graph

Daily Weather History Graph

Search for Another Location

Airport or City:

Trip Planner

Search our weather history database for the weather conditions in past years. The results will help you decide how hot, cold, wet, or windy it might be!

Date:

Astronomy

Nov. 03, 2013 Rise Set
Actual Time 6:41 AM EST 5:44 PM EST
Civil Twilight 6:17 AM EST 6:09 PM EST
Nautical Twilight 5:49 AM EST 6:36 PM EST
Astronomical Twilight 5:22 AM EST 7:04 PM EST
Moon 6:42 AM EST (11/3) 6:01 PM EST (11/3)
Length of Visible Light 11h 51m
Length of Day
11h 03m
New Moon, 0% of the Moon is Illuminated
Nov 3
New Moon
Nov 10
First Quarter
Nov 17
Full
Nov 25
Last Quarter
Dec 2
New

Hourly Weather History & Observations

Time (EST) Temp. Dew Point Humidity Pressure Visibility Wind Dir Wind Speed Gust Speed Precip Events Conditions
12:15 AM 64.4 °F 62.6 °F 94% 30.00 in 10.0 mi NE 6.9 mph - N/A   Clear
12:35 AM 64.4 °F 62.6 °F 94% 29.99 in 10.0 mi ENE 6.9 mph - N/A   Partly Cloudy
12:55 AM 64.4 °F 62.6 °F 94% 30.00 in 10.0 mi NE 6.9 mph - N/A   Mostly Cloudy
1:15 AM 64.4 °F 62.6 °F 94% 30.00 in 10.0 mi NNE 6.9 mph - N/A   Overcast
1:35 AM 64.4 °F 62.6 °F 94% 29.99 in 10.0 mi NNE 5.8 mph - N/A   Overcast
1:55 AM 66.2 °F 62.6 °F 88% 30.00 in 10.0 mi NNE 5.8 mph - N/A   Overcast
1:15 AM 66.2 °F 62.6 °F 88% 30.00 in 10.0 mi NNE 5.8 mph - N/A   Overcast
1:35 AM 64.4 °F 62.6 °F 94% 29.99 in 10.0 mi NNE 4.6 mph - N/A   Overcast
1:55 AM 64.4 °F 60.8 °F 88% 29.99 in 10.0 mi NNE 5.8 mph - N/A   Overcast
2:15 AM 64.4 °F 60.8 °F 88% 29.99 in 10.0 mi NNE 6.9 mph - N/A   Overcast
2:35 AM 64.4 °F 60.8 °F 88% 29.99 in 10.0 mi NNE 5.8 mph - N/A   Overcast
2:55 AM 64.4 °F 60.8 °F 88% 29.99 in 10.0 mi NE 3.5 mph - N/A   Overcast
3:15 AM 64.4 °F 60.8 °F 88% 29.99 in 10.0 mi NNE 4.6 mph - N/A   Overcast
3:35 AM 64.4 °F 60.8 °F 88% 29.99 in 10.0 mi NNE 5.8 mph - N/A   Overcast
3:55 AM 64.4 °F 59.0 °F 83% 29.98 in 10.0 mi North 5.8 mph - N/A   Mostly Cloudy
4:15 AM 64.4 °F 59.0 °F 83% 29.98 in 10.0 mi North 6.9 mph - N/A   Scattered Clouds
4:35 AM 62.6 °F 59.0 °F 88% 29.98 in 10.0 mi North 6.9 mph - N/A   Partly Cloudy
4:55 AM 62.6 °F 59.0 °F 88% 29.99 in 10.0 mi North 6.9 mph - N/A   Clear
5:15 AM 62.6 °F 59.0 °F 88% 29.99 in 10.0 mi NNE 6.9 mph - N/A   Clear
5:35 AM 62.6 °F 57.2 °F 82% 30.00 in 10.0 mi North 5.8 mph - N/A   Clear
5:55 AM 62.6 °F 57.2 °F 82% 30.01 in 10.0 mi North 6.9 mph - N/A   Clear
6:15 AM 60.8 °F 57.2 °F 88% 30.01 in 10.0 mi North 8.1 mph - N/A   Clear
6:35 AM 60.8 °F 57.2 °F 88% 30.02 in 10.0 mi NNE 8.1 mph - N/A   Clear
6:55 AM 62.6 °F 55.4 °F 77% 30.02 in 10.0 mi NNE 9.2 mph 16.1 mph N/A   Clear
7:15 AM 62.6 °F 53.6 °F 72% 30.03 in 10.0 mi NNE 11.5 mph - N/A   Clear
7:35 AM 62.6 °F 53.6 °F 72% 30.04 in 10.0 mi NNE 9.2 mph - N/A   Clear
7:55 AM 64.4 °F 51.8 °F 64% 30.05 in 10.0 mi NE 11.5 mph 18.4 mph N/A   Clear
8:15 AM 64.4 °F 51.8 °F 64% 30.06 in 10.0 mi NE 12.7 mph 18.4 mph N/A   Unknown
8:35 AM 66.2 °F 50.0 °F 56% 30.06 in 10.0 mi NE 15.0 mph 19.6 mph N/A   Unknown
8:55 AM 66.2 °F 50.0 °F 56% 30.07 in 10.0 mi NE 12.7 mph 18.4 mph N/A   Unknown
9:15 AM 68.0 °F 50.0 °F 52% 30.08 in 10.0 mi NE 17.3 mph 21.9 mph N/A   Unknown
9:35 AM 69.8 °F 51.8 °F 53% 30.08 in 10.0 mi NE 12.7 mph 18.4 mph N/A   Clear
9:55 AM 71.6 °F 50.0 °F 46% 30.09 in 10.0 mi NE 12.7 mph - N/A   Clear
10:15 AM 73.4 °F 50.0 °F 44% 30.09 in 10.0 mi NE 12.7 mph 17.3 mph N/A   Unknown
10:35 AM 73.4 °F 50.0 °F 44% 30.08 in 10.0 mi NNE 12.7 mph - N/A   Clear
10:55 AM 73.4 °F 48.2 °F 41% 30.08 in 10.0 mi NE 16.1 mph 23.0 mph N/A   Clear
11:15 AM 75.2 °F 48.2 °F 38% 30.08 in 10.0 mi NE 15.0 mph 23.0 mph N/A   Clear
11:35 AM 75.2 °F 48.2 °F 38% 30.07 in 10.0 mi NE 12.7 mph 17.3 mph N/A   Clear
11:55 AM 75.2 °F 42.8 °F 31% 30.06 in 10.0 mi NE 16.1 mph 20.7 mph N/A   Clear
12:15 PM 75.2 °F 46.4 °F 36% 30.06 in 10.0 mi NE 13.8 mph 19.6 mph N/A   Clear
12:35 PM 77.0 °F 42.8 °F 29% 30.05 in 10.0 mi NNE 16.1 mph 21.9 mph N/A   Clear
12:55 PM 75.2 °F 44.6 °F 34% 30.04 in 10.0 mi NNE 17.3 mph 24.2 mph N/A   Clear
1:15 PM 77.0 °F 44.6 °F 32% 30.03 in 10.0 mi NNE 12.7 mph 21.9 mph N/A   Clear
1:35 PM 77.0 °F 44.6 °F 32% 30.03 in 10.0 mi NNE 12.7 mph 20.7 mph N/A   Clear
1:55 PM 77.0 °F 44.6 °F 32% 30.02 in 10.0 mi NNE 13.8 mph 18.4 mph N/A   Clear
2:15 PM 77.0 °F 44.6 °F 32% 30.02 in 10.0 mi ENE 15.0 mph 20.7 mph N/A   Clear
2:35 PM 77.0 °F 44.6 °F 32% 30.02 in 10.0 mi NNE 12.7 mph 20.7 mph N/A   Clear
2:55 PM 77.0 °F 44.6 °F 32% 30.01 in 10.0 mi NNE 15.0 mph 21.9 mph N/A   Clear
3:15 PM 77.0 °F 44.6 °F 32% 30.01 in 10.0 mi NNE 16.1 mph 20.7 mph N/A   Clear
3:35 PM 77.0 °F 44.6 °F 32% 30.02 in 10.0 mi NE 11.5 mph 18.4 mph N/A   Clear
3:55 PM 75.2 °F 42.8 °F 31% 30.02 in 10.0 mi NE 12.7 mph 19.6 mph N/A   Clear
4:15 PM 75.2 °F 42.8 °F 31% 30.02 in 10.0 mi NNE 13.8 mph 19.6 mph N/A   Clear
4:35 PM 75.2 °F 41.0 °F 29% 30.02 in 10.0 mi NE 13.8 mph 18.4 mph N/A   Clear
4:55 PM 75.2 °F 41.0 °F 29% 30.02 in 10.0 mi NE 12.7 mph 17.3 mph N/A   Clear
5:15 PM 73.4 °F 41.0 °F 31% 30.03 in 10.0 mi NE 9.2 mph - N/A   Clear
5:35 PM 71.6 °F 41.0 °F 33% 30.03 in 10.0 mi NE 8.1 mph - N/A   Clear
5:55 PM 69.8 °F 42.8 °F 38% 30.04 in 10.0 mi NNE 6.9 mph - N/A   Clear
6:15 PM 68.0 °F 44.6 °F 43% 30.05 in 10.0 mi NNE 6.9 mph - N/A   Clear
6:35 PM 66.2 °F 44.6 °F 46% 30.05 in 10.0 mi NNE 8.1 mph - N/A   Clear
6:55 PM 66.2 °F 44.6 °F 46% 30.06 in 10.0 mi NNE 8.1 mph - N/A   Clear
7:15 PM 66.2 °F 44.6 °F 46% 30.07 in 10.0 mi NNE 6.9 mph - N/A   Clear
7:35 PM 64.4 °F 44.6 °F 49% 30.08 in 10.0 mi NNE 8.1 mph - N/A   Clear
7:55 PM 64.4 °F 44.6 °F 49% 30.08 in 10.0 mi NNE 9.2 mph - N/A   Clear
8:15 PM 64.4 °F 46.4 °F 52% 30.09 in 10.0 mi NE 8.1 mph - N/A   Clear
8:35 PM 64.4 °F 46.4 °F 52% 30.10 in 10.0 mi NE 9.2 mph - N/A   Clear
8:55 PM 62.6 °F 48.2 °F 59% 30.10 in 10.0 mi NE 10.4 mph - N/A   Clear
9:15 PM 62.6 °F 48.2 °F 59% 30.10 in 10.0 mi NE 10.4 mph - N/A   Clear
9:35 PM 62.6 °F 50.0 °F 63% 30.11 in 10.0 mi NE 9.2 mph - N/A   Clear
9:55 PM 60.8 °F 50.0 °F 68% 30.11 in 10.0 mi NE 10.4 mph - N/A   Clear
10:15 PM 60.8 °F 50.0 °F 68% 30.11 in 10.0 mi NE 13.8 mph - N/A   Clear
10:35 PM 60.8 °F 50.0 °F 68% 30.11 in 10.0 mi NE 11.5 mph - N/A   Clear
10:55 PM 60.8 °F 50.0 °F 68% 30.11 in 10.0 mi NE 12.7 mph - N/A   Clear